Terminal Aerodrome Forecast
Issued by NWS

Home | Current Version | Previous Version | Text Only | Print | Product List | Glossary On
Versions: 1 2 3 4 5 6 7 8 9 10 11 12 13
028
FTUS43 KMPX 251120
TAFAXN
TAF
KAXN 251120Z 2512/2612 16013G21KT P6SM FEW200
     FM260000 18006KT P6SM VCTS SCT040CB PROB30 2600/2604 3SM TSRA
      SCT015 BKN040CB
     FM260500 36005KT P6SM FEW005 BKN250=

USA.gov is the U.S. government's official web portal to all federal, state and local government web resources and services.